createdAt,value
2017-10-23T00:02:04.304Z,1.90
2017-10-23T00:04:32.655Z,1.60
2017-10-23T00:07:01.055Z,2.10
2017-10-23T00:09:29.392Z,2.10
2017-10-23T00:14:30.217Z,1.70
2017-10-23T00:16:58.871Z,1.30
2017-10-23T00:19:27.371Z,1.50
2017-10-23T00:21:55.977Z,1.87
2017-10-23T00:24:24.368Z,1.60
2017-10-23T00:26:52.941Z,1.30
2017-10-23T00:35:13.922Z,1.70
2017-10-23T00:37:42.326Z,2.13
2017-10-23T00:40:10.628Z,2.20
2017-10-23T00:42:42.501Z,1.80
2017-10-23T00:45:10.959Z,1.50
2017-10-23T00:47:43.680Z,2.10
2017-10-23T00:50:12.162Z,2.50
2017-10-23T00:52:40.673Z,2.03
2017-10-23T00:55:09.073Z,1.63
2017-10-23T00:57:37.431Z,2.13
2017-10-23T01:00:05.791Z,1.87
2017-10-23T01:02:34.347Z,2.40
2017-10-23T01:05:02.792Z,1.50
2017-10-23T01:07:31.289Z,2.40
2017-10-23T01:09:59.673Z,2.27
2017-10-23T01:12:28.035Z,1.83
2017-10-23T01:14:56.512Z,1.67
2017-10-23T01:17:24.920Z,1.90
2017-10-23T01:19:53.278Z,1.60
2017-10-23T01:22:21.834Z,2.27
2017-10-23T01:24:50.238Z,1.67
2017-10-23T01:27:18.701Z,2.13
2017-10-23T01:29:47.120Z,2.40
2017-10-23T01:32:17.418Z,1.93
2017-10-23T01:34:45.777Z,2.37
2017-10-23T01:37:14.238Z,1.63
2017-10-23T01:39:42.702Z,1.90
2017-10-23T01:42:11.167Z,1.60
2017-10-23T01:44:39.595Z,1.63
2017-10-23T01:47:08.150Z,2.17
2017-10-23T01:49:36.708Z,2.20
2017-10-23T01:52:05.835Z,1.80
2017-10-23T01:54:34.574Z,1.37
2017-10-23T01:57:03.061Z,1.50
2017-10-23T01:59:32.403Z,1.40
2017-10-23T02:02:00.969Z,2.30
2017-10-23T02:04:29.337Z,1.40
2017-10-23T02:06:57.796Z,1.93
2017-10-23T02:09:26.366Z,1.50
2017-10-23T02:11:54.725Z,1.80
2017-10-23T02:14:23.158Z,1.40
2017-10-23T02:16:51.656Z,1.73
2017-10-23T02:19:20.151Z,2.07
2017-10-23T02:21:48.621Z,1.50
2017-10-23T02:24:16.953Z,1.87
2017-10-23T02:26:46.139Z,2.47
2017-10-23T02:29:14.638Z,1.47
2017-10-23T02:31:43.172Z,1.70
2017-10-23T02:34:11.548Z,2.00
2017-10-23T02:36:40.071Z,2.10
2017-10-23T02:39:08.581Z,2.13
2017-10-23T02:41:37.249Z,1.90
2017-10-23T02:44:05.799Z,1.70
2017-10-23T02:46:34.527Z,2.37
2017-10-23T02:49:03.129Z,2.20
2017-10-23T02:51:31.559Z,2.30
2017-10-23T02:53:59.989Z,1.83
2017-10-23T02:56:28.523Z,2.80
2017-10-23T02:58:56.976Z,2.20
2017-10-23T03:01:25.368Z,2.10
2017-10-23T03:03:53.874Z,1.83
2017-10-23T03:06:22.291Z,2.10
2017-10-23T03:08:50.882Z,2.13
2017-10-23T03:11:23.140Z,2.30
2017-10-23T03:13:51.842Z,2.97
2017-10-23T03:16:20.534Z,1.80
2017-10-23T03:18:49.160Z,2.40
2017-10-23T03:21:17.691Z,2.30
2017-10-23T03:23:46.175Z,1.97
2017-10-23T03:26:15.042Z,2.00
2017-10-23T03:28:44.607Z,1.83
2017-10-23T03:31:13.061Z,2.00
2017-10-23T03:33:41.688Z,2.10
2017-10-23T03:36:10.049Z,1.80
2017-10-23T03:38:39.375Z,2.50
2017-10-23T03:41:07.933Z,1.87
2017-10-23T03:43:36.934Z,1.70
2017-10-23T03:46:05.499Z,1.73
2017-10-23T03:48:34.488Z,2.20
2017-10-23T03:51:02.818Z,2.07
2017-10-23T03:53:31.314Z,1.73
2017-10-23T03:55:59.854Z,2.03
2017-10-23T03:58:28.238Z,1.47
2017-10-23T04:00:56.693Z,2.10
2017-10-23T04:05:57.609Z,1.70
2017-10-23T04:08:26.055Z,2.70
2017-10-23T04:10:54.417Z,1.93
2017-10-23T04:13:22.887Z,2.37
2017-10-23T04:15:51.569Z,1.40
2017-10-23T04:18:20.274Z,1.50
2017-10-23T04:20:48.712Z,2.13
2017-10-23T04:23:17.186Z,2.50
2017-10-23T04:25:45.764Z,2.33
2017-10-23T04:28:14.128Z,2.77
2017-10-23T04:30:43.345Z,1.87
2017-10-23T04:33:11.827Z,2.03
2017-10-23T04:35:40.667Z,2.13
2017-10-23T04:38:09.055Z,2.00
2017-10-23T04:40:39.276Z,1.63
2017-10-23T04:43:08.046Z,1.70
2017-10-23T04:45:36.750Z,2.20
2017-10-23T04:48:05.394Z,1.83
2017-10-23T04:50:33.895Z,1.53
2017-10-23T04:53:03.071Z,1.77
2017-10-23T04:55:31.715Z,1.40
2017-10-23T04:58:00.884Z,2.20
2017-10-23T05:00:30.691Z,1.77
2017-10-23T05:02:59.111Z,1.90
2017-10-23T05:05:28.447Z,1.90
2017-10-23T05:07:57.779Z,1.53
2017-10-23T05:10:26.570Z,2.23
2017-10-23T05:12:57.170Z,1.77
2017-10-23T05:15:25.526Z,1.90
2017-10-23T05:17:54.199Z,2.13
2017-10-23T05:20:23.666Z,2.13
2017-10-23T05:30:34.072Z,1.80
2017-10-23T05:35:35.426Z,2.53
2017-10-23T05:38:05.504Z,2.10
2017-10-23T05:43:09.110Z,1.90
2017-10-23T05:45:37.784Z,2.10
2017-10-23T05:48:06.270Z,2.10
2017-10-23T05:50:35.072Z,1.97
2017-10-23T05:55:36.293Z,2.13
2017-10-23T06:00:37.724Z,2.90
2017-10-23T06:05:48.005Z,2.70
2017-10-23T06:34:46.923Z,2.33
2017-10-23T06:37:16.194Z,2.47
2017-10-23T06:42:17.736Z,2.40
2017-10-23T06:44:46.129Z,1.83
2017-10-23T06:47:16.303Z,1.83
2017-10-23T06:57:24.900Z,2.47
2017-10-23T06:59:53.320Z,2.40
2017-10-23T07:02:25.573Z,1.90
2017-10-23T07:04:54.096Z,2.07
2017-10-23T07:07:22.540Z,1.50
2017-10-23T07:09:51.029Z,2.50
2017-10-23T07:12:22.978Z,3.20
2017-10-23T07:14:52.426Z,1.90
2017-10-23T07:17:24.813Z,2.33
2017-10-23T07:19:53.268Z,2.33
2017-10-23T07:22:21.882Z,1.80
2017-10-23T07:27:24.601Z,2.47
2017-10-23T07:29:53.841Z,2.00
2017-10-23T07:34:56.006Z,1.93
2017-10-23T07:42:30.357Z,2.67
2017-10-23T08:01:34.937Z,2.50
2017-10-23T08:06:35.914Z,2.50
2017-10-23T08:16:44.479Z,3.00
2017-10-23T08:19:16.657Z,2.80
2017-10-23T08:27:12.112Z,3.00
2017-10-23T08:29:40.787Z,3.13
2017-10-23T08:43:28.156Z,3.70
2017-10-23T08:45:57.346Z,3.50
2017-10-23T08:58:37.167Z,2.90
2017-10-23T09:01:09.986Z,3.00
2017-10-23T09:03:38.442Z,2.63
2017-10-23T09:06:07.068Z,2.50
2017-10-23T09:08:46.199Z,2.87
2017-10-23T09:11:14.894Z,3.57
2017-10-23T09:18:50.630Z,2.60
2017-10-23T09:23:53.572Z,2.23
2017-10-23T09:26:22.096Z,3.90
2017-10-23T09:39:44.459Z,2.13
2017-10-23T09:42:13.010Z,2.37
2017-10-23T09:44:42.365Z,3.10
2017-10-23T09:49:44.235Z,2.50
2017-10-23T09:52:12.937Z,2.03
2017-10-23T09:57:14.109Z,2.00
2017-10-23T09:59:42.581Z,2.40
2017-10-23T10:04:44.636Z,3.30
2017-10-23T10:22:46.793Z,2.20
2017-10-23T10:28:25.260Z,2.57
2017-10-23T10:33:33.975Z,2.73
2017-10-23T10:36:08.653Z,1.87
2017-10-23T10:43:43.473Z,2.50
2017-10-23T10:48:45.829Z,2.80
2017-10-23T10:51:14.435Z,2.00
2017-10-23T10:58:51.603Z,2.20
2017-10-23T11:03:53.046Z,2.40
2017-10-23T11:32:17.861Z,2.63
2017-10-23T11:37:21.777Z,3.00
2017-10-23T11:39:53.759Z,2.30
2017-10-23T11:42:22.945Z,2.97
2017-10-23T11:44:51.631Z,3.10
2017-10-23T11:49:53.516Z,3.83
2017-10-23T11:52:22.272Z,2.37
2017-10-23T11:59:57.311Z,1.83
2017-10-23T12:04:58.441Z,1.73
2017-10-23T12:07:27.169Z,1.97
2017-10-23T12:09:57.459Z,1.90
2017-10-23T12:12:26.732Z,2.53
2017-10-23T12:14:55.325Z,2.17
2017-10-23T12:17:25.507Z,2.00
2017-10-23T12:19:56.910Z,2.20
2017-10-23T12:22:25.633Z,2.87
2017-10-23T12:24:54.153Z,2.70
2017-10-23T12:29:56.322Z,2.40
2017-10-23T12:32:24.761Z,2.03
2017-10-23T12:37:26.183Z,2.87
2017-10-23T12:43:06.858Z,2.77
2017-10-23T12:48:08.887Z,2.70
2017-10-23T12:50:37.807Z,2.90
2017-10-23T12:53:06.419Z,3.17
2017-10-23T12:58:07.686Z,2.73
2017-10-23T13:00:38.060Z,3.20
2017-10-23T13:03:08.635Z,3.27
2017-10-23T13:05:37.683Z,3.50
2017-10-23T13:08:06.249Z,3.43
2017-10-23T13:10:35.411Z,3.30
2017-10-23T13:13:07.480Z,3.60
2017-10-23T13:15:35.927Z,3.30
2017-10-23T13:18:04.572Z,5.50
2017-10-23T13:20:34.046Z,5.03
2017-10-23T13:23:02.517Z,4.93
2017-10-23T13:25:30.965Z,6.33
2017-10-23T13:30:32.237Z,11.40
2017-10-23T13:33:00.797Z,12.37
2017-10-23T13:38:03.264Z,4.57
2017-10-23T13:40:31.942Z,4.00
2017-10-23T13:43:00.534Z,4.50
2017-10-23T13:45:29.931Z,4.00
2017-10-23T13:53:40.636Z,3.40
2017-10-23T13:56:09.210Z,3.47
2017-10-23T14:01:13.455Z,3.57
2017-10-23T14:15:51.529Z,5.30
2017-10-23T14:21:04.762Z,4.53
2017-10-23T14:38:13.387Z,3.10
2017-10-23T14:47:01.315Z,3.10
2017-10-23T14:49:35.392Z,2.97
2017-10-23T14:54:38.903Z,2.33
2017-10-23T15:05:24.482Z,3.10
2017-10-23T15:07:53.303Z,3.70
2017-10-23T15:21:12.444Z,3.20
2017-10-23T15:23:41.271Z,4.17
2017-10-23T15:28:55.257Z,2.73
2017-10-23T15:34:27.810Z,3.67
2017-10-23T15:42:02.340Z,3.67
2017-10-23T15:44:31.637Z,3.90
2017-10-23T15:54:38.653Z,2.70
2017-10-23T16:02:12.542Z,3.13
2017-10-23T16:04:45.231Z,3.33
2017-10-23T16:07:13.705Z,3.60
2017-10-23T16:09:42.142Z,3.00
2017-10-23T16:12:10.614Z,3.07
2017-10-23T16:14:39.099Z,4.03
2017-10-23T16:17:07.795Z,3.40
2017-10-23T16:22:09.276Z,3.97
2017-10-23T16:24:39.345Z,4.00
2017-10-23T16:42:26.842Z,3.40
2017-10-23T16:44:55.520Z,3.80
2017-10-23T16:47:23.928Z,3.80
2017-10-23T16:52:25.517Z,4.47
2017-10-23T16:54:54.126Z,4.13
2017-10-23T16:57:22.878Z,4.57
2017-10-23T17:02:23.890Z,4.87
2017-10-23T17:09:58.056Z,5.40
2017-10-23T17:12:28.129Z,4.80
2017-10-23T17:15:04.851Z,4.63
2017-10-23T17:22:41.783Z,6.43
2017-10-23T17:32:52.402Z,4.50
2017-10-23T17:35:21.039Z,6.03
2017-10-23T17:37:49.463Z,4.67
2017-10-23T17:40:18.518Z,5.77
2017-10-23T17:42:47.150Z,5.37
2017-10-23T17:50:21.019Z,4.80
2017-10-23T17:52:49.818Z,4.57
2017-10-23T18:00:24.283Z,3.70
2017-10-23T18:02:52.830Z,4.10
2017-10-23T18:05:22.076Z,4.70
2017-10-23T18:10:22.902Z,4.60
2017-10-23T18:12:51.821Z,4.07
2017-10-23T18:17:53.817Z,5.33
2017-10-23T18:20:24.130Z,5.47
2017-10-23T18:22:52.509Z,5.10
2017-10-23T18:25:21.860Z,5.37
2017-10-23T18:30:23.036Z,4.93
2017-10-23T18:32:51.541Z,5.00
2017-10-23T18:37:52.858Z,4.00
2017-10-23T18:40:21.513Z,4.13
2017-10-23T18:45:23.637Z,5.50
2017-10-23T18:55:34.541Z,4.30
2017-10-23T18:58:04.655Z,5.10
2017-10-23T19:00:36.825Z,4.90
2017-10-23T19:03:06.268Z,4.20
2017-10-23T19:08:10.897Z,5.50
2017-10-23T19:13:12.521Z,5.33
2017-10-23T19:15:43.300Z,6.33
2017-10-23T19:18:11.915Z,4.50
2017-10-23T19:20:40.383Z,5.80
2017-10-23T19:25:41.445Z,4.47
2017-10-23T19:28:10.085Z,5.07
2017-10-23T19:30:38.606Z,4.50
2017-10-23T19:33:07.025Z,4.73
2017-10-23T19:35:35.490Z,5.00
2017-10-23T19:38:04.010Z,5.07
2017-10-23T19:40:53.367Z,6.00
2017-10-23T19:43:22.678Z,5.30
2017-10-23T19:45:51.091Z,5.20
2017-10-23T19:48:23.226Z,6.50
2017-10-23T19:50:52.554Z,5.93
2017-10-23T19:53:21.006Z,5.47
2017-10-23T19:55:49.788Z,6.10
2017-10-23T20:00:50.905Z,4.40
2017-10-23T20:05:53.712Z,5.57
2017-10-23T20:08:22.162Z,5.13
2017-10-23T20:10:50.589Z,5.53
2017-10-23T20:13:19.079Z,5.50
2017-10-23T20:15:47.418Z,5.23
2017-10-23T20:18:15.944Z,5.73
2017-10-23T20:20:44.586Z,4.33
2017-10-23T20:23:13.124Z,4.73
2017-10-23T20:25:41.638Z,4.97
2017-10-23T20:28:10.238Z,4.60
2017-10-23T20:30:39.111Z,4.90
2017-10-23T20:33:07.658Z,5.20
2017-10-23T20:35:38.063Z,4.97
2017-10-23T20:38:06.592Z,4.40
2017-10-23T20:40:35.132Z,5.37
2017-10-23T20:43:07.802Z,5.13
2017-10-23T20:45:36.329Z,4.87
2017-10-23T20:48:04.958Z,5.30
2017-10-23T20:50:33.666Z,4.07
2017-10-23T20:53:03.035Z,5.67
2017-10-23T20:55:31.635Z,4.33
2017-10-23T20:58:00.116Z,4.87
2017-10-23T21:00:28.514Z,4.93
2017-10-23T21:02:57.035Z,4.60
2017-10-23T21:05:25.496Z,4.80
2017-10-23T21:07:53.950Z,4.47
2017-10-23T21:10:22.509Z,4.80
2017-10-23T21:12:50.901Z,5.23
2017-10-23T21:17:52.753Z,4.53
2017-10-23T21:20:21.097Z,5.10
2017-10-23T21:22:49.542Z,3.93
2017-10-23T21:25:17.979Z,4.80
2017-10-23T21:27:46.452Z,4.47
2017-10-23T21:30:15.119Z,3.67
2017-10-23T21:32:43.601Z,4.10
2017-10-23T21:35:12.472Z,3.70
2017-10-23T21:37:40.960Z,3.80
2017-10-23T21:40:09.679Z,3.93
2017-10-23T21:42:39.607Z,4.53
2017-10-23T21:45:08.048Z,4.27
2017-10-23T21:50:45.651Z,5.00
2017-10-23T21:53:13.970Z,4.20
2017-10-23T21:55:42.312Z,4.80
2017-10-23T21:58:10.705Z,4.70
2017-10-23T22:00:39.121Z,5.03
2017-10-23T22:03:07.545Z,4.60
2017-10-23T22:05:36.841Z,5.53
2017-10-23T22:08:05.273Z,5.20
2017-10-23T22:10:33.704Z,5.40
2017-10-23T22:13:02.904Z,5.83
2017-10-23T22:15:31.312Z,5.50
2017-10-23T22:17:59.786Z,5.63
2017-10-23T22:20:28.137Z,5.70
2017-10-23T22:22:56.479Z,4.90
2017-10-23T22:25:24.897Z,5.43
2017-10-23T22:27:53.303Z,5.13
2017-10-23T22:30:21.797Z,5.53
2017-10-23T22:32:50.172Z,5.30
2017-10-23T22:35:18.506Z,5.17
2017-10-23T22:37:51.492Z,5.10
2017-10-23T22:40:19.822Z,6.07
2017-10-23T22:42:48.244Z,5.77
2017-10-23T22:45:16.628Z,5.27
2017-10-23T22:47:44.967Z,5.20
2017-10-23T22:50:13.316Z,5.40
2017-10-23T22:52:41.634Z,4.33
2017-10-23T22:55:09.996Z,5.37
2017-10-23T22:57:38.347Z,5.07
2017-10-23T23:00:06.703Z,5.13
2017-10-23T23:02:35.154Z,4.50
2017-10-23T23:05:03.475Z,4.40
2017-10-23T23:07:31.861Z,4.77
2017-10-23T23:10:00.240Z,5.17
2017-10-23T23:12:28.717Z,5.03
2017-10-23T23:14:57.106Z,4.63
2017-10-23T23:17:25.488Z,4.63
2017-10-23T23:19:53.818Z,4.20
2017-10-23T23:22:22.130Z,4.30
2017-10-23T23:24:50.610Z,5.13
2017-10-23T23:27:18.928Z,4.37
2017-10-23T23:29:47.619Z,4.20
2017-10-23T23:32:15.949Z,4.60
2017-10-23T23:34:44.369Z,4.00
2017-10-23T23:37:12.704Z,4.60
2017-10-23T23:39:41.053Z,4.50
2017-10-23T23:42:09.420Z,4.50
2017-10-23T23:44:37.763Z,5.67
2017-10-23T23:47:06.230Z,3.83
2017-10-23T23:49:34.608Z,5.27
2017-10-23T23:52:02.974Z,4.43
2017-10-23T23:54:31.323Z,3.87
2017-10-23T23:56:59.674Z,3.60
2017-10-23T23:59:28.030Z,4.70
